Terminal Aerodrome Forecast
Issued by NWS Amarillo, TX

Home | Current Version | Previous Version | Text Only | Print | Product List | Glossary On
Versions: 1 2 3 4 5 6 7 8 9 10 11 12 13 14
996
FTUS44 KAMA 270520
TAFGUY
TAF
KGUY 270520Z 2706/2806 15011KT P6SM SKC
     FM271400 33016KT P6SM SKC
     FM272000 36014G23KT P6SM SCT200
     FM280100 36018G28KT P6SM SCT080 BKN150=

USA.gov is the U.S. government's official web portal to all federal, state and local government web resources and services.